sensor_id;sensor_type;location;lat;lon;timestamp;P1;durP1;ratioP1;P2;durP2;ratioP2
15637;SDS011;26604;53.596;10.042;2022-10-01T00:00:56;2.85;;;1.40;;
15637;SDS011;26604;53.596;10.042;2022-10-01T00:03:24;1.63;;;1.48;;
15637;SDS011;26604;53.596;10.042;2022-10-01T00:05:58;1.48;;;1.15;;
15637;SDS011;26604;53.596;10.042;2022-10-01T00:08:26;2.08;;;1.48;;
15637;SDS011;26604;53.596;10.042;2022-10-01T00:10:54;2.15;;;1.70;;
15637;SDS011;26604;53.596;10.042;2022-10-01T00:13:22;1.95;;;1.40;;
15637;SDS011;26604;53.596;10.042;2022-10-01T00:15:48;2.60;;;1.55;;
15637;SDS011;26604;53.596;10.042;2022-10-01T00:18:15;2.33;;;1.38;;
15637;SDS011;26604;53.596;10.042;2022-10-01T00:20:42;2.13;;;1.50;;
15637;SDS011;26604;53.596;10.042;2022-10-01T00:23:10;1.60;;;1.30;;
15637;SDS011;26604;53.596;10.042;2022-10-01T00:25:38;2.22;;;1.42;;
15637;SDS011;26604;53.596;10.042;2022-10-01T00:28:07;1.60;;;1.20;;
15637;SDS011;26604;53.596;10.042;2022-10-01T00:30:36;2.28;;;1.60;;
15637;SDS011;26604;53.596;10.042;2022-10-01T00:33:03;2.45;;;1.30;;
15637;SDS011;26604;53.596;10.042;2022-10-01T00:35:29;1.95;;;1.45;;
15637;SDS011;26604;53.596;10.042;2022-10-01T00:37:56;2.50;;;1.75;;
15637;SDS011;26604;53.596;10.042;2022-10-01T00:40:23;2.25;;;1.60;;
15637;SDS011;26604;53.596;10.042;2022-10-01T00:42:50;2.40;;;1.70;;
15637;SDS011;26604;53.596;10.042;2022-10-01T00:45:18;1.95;;;1.40;;
15637;SDS011;26604;53.596;10.042;2022-10-01T00:47:46;2.83;;;1.60;;
15637;SDS011;26604;53.596;10.042;2022-10-01T00:50:16;1.92;;;1.27;;
15637;SDS011;26604;53.596;10.042;2022-10-01T00:53:04;1.90;;;1.25;;
15637;SDS011;26604;53.596;10.042;2022-10-01T00:55:36;2.25;;;1.58;;
15637;SDS011;26604;53.596;10.042;2022-10-01T00:58:07;1.85;;;1.23;;
15637;SDS011;26604;53.596;10.042;2022-10-01T01:00:37;1.70;;;1.30;;
15637;SDS011;26604;53.596;10.042;2022-10-01T01:03:05;2.10;;;1.50;;
15637;SDS011;26604;53.596;10.042;2022-10-01T01:05:33;1.95;;;1.50;;
15637;SDS011;26604;53.596;10.042;2022-10-01T01:08:00;1.75;;;1.30;;
15637;SDS011;26604;53.596;10.042;2022-10-01T01:10:29;1.85;;;1.23;;
15637;SDS011;26604;53.596;10.042;2022-10-01T01:13:03;1.98;;;1.33;;
15637;SDS011;26604;53.596;10.042;2022-10-01T01:15:39;1.83;;;1.40;;
15637;SDS011;26604;53.596;10.042;2022-10-01T01:18:11;2.47;;;1.67;;
15637;SDS011;26604;53.596;10.042;2022-10-01T01:20:57;2.00;;;1.42;;
15637;SDS011;26604;53.596;10.042;2022-10-01T01:23:42;1.60;;;1.20;;
15637;SDS011;26604;53.596;10.042;2022-10-01T01:26:37;2.08;;;1.25;;
15637;SDS011;26604;53.596;10.042;2022-10-01T01:29:13;1.38;;;1.27;;
15637;SDS011;26604;53.596;10.042;2022-10-01T01:31:45;2.35;;;1.63;;
15637;SDS011;26604;53.596;10.042;2022-10-01T01:34:18;1.42;;;1.30;;
15637;SDS011;26604;53.596;10.042;2022-10-01T01:36:51;1.85;;;1.30;;
15637;SDS011;26604;53.596;10.042;2022-10-01T01:39:22;1.95;;;1.58;;
15637;SDS011;26604;53.596;10.042;2022-10-01T01:41:53;1.83;;;1.40;;
15637;SDS011;26604;53.596;10.042;2022-10-01T01:44:27;1.88;;;1.42;;
15637;SDS011;26604;53.596;10.042;2022-10-01T01:46:57;2.35;;;1.48;;
15637;SDS011;26604;53.596;10.042;2022-10-01T01:49:26;1.90;;;1.38;;
15637;SDS011;26604;53.596;10.042;2022-10-01T01:51:55;1.90;;;1.30;;
15637;SDS011;26604;53.596;10.042;2022-10-01T01:54:26;2.40;;;1.55;;
15637;SDS011;26604;53.596;10.042;2022-10-01T01:56:54;2.17;;;1.58;;
15637;SDS011;26604;53.596;10.042;2022-10-01T01:59:22;2.63;;;1.40;;
15637;SDS011;26604;53.596;10.042;2022-10-01T02:01:52;2.25;;;1.40;;
15637;SDS011;26604;53.596;10.042;2022-10-01T02:04:20;1.73;;;1.35;;
15637;SDS011;26604;53.596;10.042;2022-10-01T02:07:01;1.73;;;1.30;;
15637;SDS011;26604;53.596;10.042;2022-10-01T02:09:47;1.90;;;1.40;;
15637;SDS011;26604;53.596;10.042;2022-10-01T02:12:21;1.98;;;1.25;;
15637;SDS011;26604;53.596;10.042;2022-10-01T02:15:01;1.80;;;1.30;;
15637;SDS011;26604;53.596;10.042;2022-10-01T02:17:36;1.65;;;1.00;;
15637;SDS011;26604;53.596;10.042;2022-10-01T02:20:11;2.05;;;1.67;;
15637;SDS011;26604;53.596;10.042;2022-10-01T02:22:45;1.63;;;1.25;;
15637;SDS011;26604;53.596;10.042;2022-10-01T02:25:16;2.38;;;1.48;;
15637;SDS011;26604;53.596;10.042;2022-10-01T02:27:51;2.17;;;1.30;;
15637;SDS011;26604;53.596;10.042;2022-10-01T02:30:23;2.15;;;1.30;;
15637;SDS011;26604;53.596;10.042;2022-10-01T02:32:51;2.17;;;1.30;;
15637;SDS011;26604;53.596;10.042;2022-10-01T02:35:20;3.50;;;1.40;;
15637;SDS011;26604;53.596;10.042;2022-10-01T02:37:48;2.25;;;1.40;;
15637;SDS011;26604;53.596;10.042;2022-10-01T02:40:18;1.85;;;1.17;;
15637;SDS011;26604;53.596;10.042;2022-10-01T02:42:50;2.90;;;1.40;;
15637;SDS011;26604;53.596;10.042;2022-10-01T02:45:21;2.25;;;1.42;;
15637;SDS011;26604;53.596;10.042;2022-10-01T02:47:53;2.35;;;1.40;;
15637;SDS011;26604;53.596;10.042;2022-10-01T02:50:23;2.00;;;1.50;;
15637;SDS011;26604;53.596;10.042;2022-10-01T02:52:57;1.70;;;1.30;;
15637;SDS011;26604;53.596;10.042;2022-10-01T02:55:28;2.13;;;1.38;;
15637;SDS011;26604;53.596;10.042;2022-10-01T02:57:59;1.90;;;1.20;;
15637;SDS011;26604;53.596;10.042;2022-10-01T03:00:26;1.55;;;1.05;;
15637;SDS011;26604;53.596;10.042;2022-10-01T03:02:54;1.25;;;1.10;;
15637;SDS011;26604;53.596;10.042;2022-10-01T03:05:21;1.60;;;1.25;;
15637;SDS011;26604;53.596;10.042;2022-10-01T03:07:48;1.70;;;1.27;;
15637;SDS011;26604;53.596;10.042;2022-10-01T03:10:15;2.47;;;1.25;;
15637;SDS011;26604;53.596;10.042;2022-10-01T03:12:42;1.40;;;1.10;;
15637;SDS011;26604;53.596;10.042;2022-10-01T03:15:11;2.42;;;1.55;;
15637;SDS011;26604;53.596;10.042;2022-10-01T03:17:38;1.40;;;1.10;;
15637;SDS011;26604;53.596;10.042;2022-10-01T03:20:07;1.45;;;1.23;;
15637;SDS011;26604;53.596;10.042;2022-10-01T03:22:35;1.38;;;1.00;;
15637;SDS011;26604;53.596;10.042;2022-10-01T03:25:02;1.63;;;1.20;;
15637;SDS011;26604;53.596;10.042;2022-10-01T03:27:29;1.50;;;1.10;;
15637;SDS011;26604;53.596;10.042;2022-10-01T03:29:56;1.98;;;1.40;;
15637;SDS011;26604;53.596;10.042;2022-10-01T03:32:23;2.15;;;1.38;;
15637;SDS011;26604;53.596;10.042;2022-10-01T03:34:49;1.55;;;1.00;;
15637;SDS011;26604;53.596;10.042;2022-10-01T03:37:17;1.63;;;1.40;;
15637;SDS011;26604;53.596;10.042;2022-10-01T03:39:44;1.60;;;0.95;;
15637;SDS011;26604;53.596;10.042;2022-10-01T03:42:11;1.40;;;1.20;;
15637;SDS011;26604;53.596;10.042;2022-10-01T03:44:39;1.65;;;1.10;;
15637;SDS011;26604;53.596;10.042;2022-10-01T03:47:06;2.50;;;1.13;;
15637;SDS011;26604;53.596;10.042;2022-10-01T03:49:33;1.85;;;1.20;;
15637;SDS011;26604;53.596;10.042;2022-10-01T03:52:00;1.98;;;1.42;;
15637;SDS011;26604;53.596;10.042;2022-10-01T03:54:29;1.75;;;1.33;;
15637;SDS011;26604;53.596;10.042;2022-10-01T03:56:56;1.38;;;1.10;;
15637;SDS011;26604;53.596;10.042;2022-10-01T03:59:23;1.40;;;1.02;;
15637;SDS011;26604;53.596;10.042;2022-10-01T04:01:51;1.50;;;1.10;;
15637;SDS011;26604;53.596;10.042;2022-10-01T04:04:18;1.42;;;1.02;;
15637;SDS011;26604;53.596;10.042;2022-10-01T04:06:45;1.38;;;1.27;;
15637;SDS011;26604;53.596;10.042;2022-10-01T04:09:11;1.88;;;1.27;;
15637;SDS011;26604;53.596;10.042;2022-10-01T04:11:40;1.70;;;1.10;;
15637;SDS011;26604;53.596;10.042;2022-10-01T04:14:07;1.75;;;1.30;;
15637;SDS011;26604;53.596;10.042;2022-10-01T04:16:33;2.10;;;1.30;;
15637;SDS011;26604;53.596;10.042;2022-10-01T04:19:01;1.58;;;1.20;;
15637;SDS011;26604;53.596;10.042;2022-10-01T04:21:28;2.35;;;1.67;;
15637;SDS011;26604;53.596;10.042;2022-10-01T04:23:55;1.73;;;1.20;;
15637;SDS011;26604;53.596;10.042;2022-10-01T04:26:22;1.20;;;1.10;;
15637;SDS011;26604;53.596;10.042;2022-10-01T04:28:50;1.38;;;1.20;;
15637;SDS011;26604;53.596;10.042;2022-10-01T04:31:17;1.55;;;1.30;;
15637;SDS011;26604;53.596;10.042;2022-10-01T04:33:49;2.00;;;1.15;;
15637;SDS011;26604;53.596;10.042;2022-10-01T04:36:16;1.75;;;0.90;;
15637;SDS011;26604;53.596;10.042;2022-10-01T04:38:44;1.10;;;1.00;;
15637;SDS011;26604;53.596;10.042;2022-10-01T04:41:11;2.13;;;1.08;;
15637;SDS011;26604;53.596;10.042;2022-10-01T04:43:39;1.02;;;0.90;;
15637;SDS011;26604;53.596;10.042;2022-10-01T04:46:07;1.10;;;0.90;;
15637;SDS011;26604;53.596;10.042;2022-10-01T04:48:34;1.77;;;1.27;;
15637;SDS011;26604;53.596;10.042;2022-10-01T04:51:01;1.73;;;1.13;;
15637;SDS011;26604;53.596;10.042;2022-10-01T04:53:28;2.78;;;1.13;;
15637;SDS011;26604;53.596;10.042;2022-10-01T04:55:54;1.48;;;1.10;;
15637;SDS011;26604;53.596;10.042;2022-10-01T04:58:21;1.67;;;1.20;;
15637;SDS011;26604;53.596;10.042;2022-10-01T05:00:48;1.50;;;1.02;;
15637;SDS011;26604;53.596;10.042;2022-10-01T05:03:17;1.85;;;1.05;;
15637;SDS011;26604;53.596;10.042;2022-10-01T05:05:43;1.30;;;1.05;;
15637;SDS011;26604;53.596;10.042;2022-10-01T05:08:10;1.60;;;1.10;;
15637;SDS011;26604;53.596;10.042;2022-10-01T05:10:37;1.52;;;1.20;;
15637;SDS011;26604;53.596;10.042;2022-10-01T05:13:04;1.15;;;1.05;;
15637;SDS011;26604;53.596;10.042;2022-10-01T05:15:31;1.83;;;1.30;;
15637;SDS011;26604;53.596;10.042;2022-10-01T05:17:59;1.65;;;1.00;;
15637;SDS011;26604;53.596;10.042;2022-10-01T05:20:28;1.30;;;1.00;;
15637;SDS011;26604;53.596;10.042;2022-10-01T05:22:54;1.90;;;1.15;;
15637;SDS011;26604;53.596;10.042;2022-10-01T05:25:21;1.90;;;1.40;;
15637;SDS011;26604;53.596;10.042;2022-10-01T05:27:48;1.17;;;0.95;;
15637;SDS011;26604;53.596;10.042;2022-10-01T05:30:15;1.73;;;1.08;;
15637;SDS011;26604;53.596;10.042;2022-10-01T05:32:57;1.08;;;0.98;;
15637;SDS011;26604;53.596;10.042;2022-10-01T05:35:26;1.70;;;1.10;;
15637;SDS011;26604;53.596;10.042;2022-10-01T05:37:54;1.00;;;0.90;;
15637;SDS011;26604;53.596;10.042;2022-10-01T05:40:22;1.83;;;1.30;;
15637;SDS011;26604;53.596;10.042;2022-10-01T05:42:51;1.30;;;1.00;;
15637;SDS011;26604;53.596;10.042;2022-10-01T05:45:18;1.20;;;1.10;;
15637;SDS011;26604;53.596;10.042;2022-10-01T05:47:47;1.40;;;1.00;;
15637;SDS011;26604;53.596;10.042;2022-10-01T05:50:20;1.23;;;0.98;;
15637;SDS011;26604;53.596;10.042;2022-10-01T05:52:49;0.98;;;0.80;;
15637;SDS011;26604;53.596;10.042;2022-10-01T05:55:17;1.58;;;0.98;;
15637;SDS011;26604;53.596;10.042;2022-10-01T05:57:51;1.55;;;1.00;;
15637;SDS011;26604;53.596;10.042;2022-10-01T06:00:19;1.50;;;1.10;;
15637;SDS011;26604;53.596;10.042;2022-10-01T06:02:48;1.40;;;0.98;;
15637;SDS011;26604;53.596;10.042;2022-10-01T06:05:16;1.30;;;1.08;;
15637;SDS011;26604;53.596;10.042;2022-10-01T06:07:42;1.77;;;1.00;;
15637;SDS011;26604;53.596;10.042;2022-10-01T06:10:11;1.30;;;1.00;;
15637;SDS011;26604;53.596;10.042;2022-10-01T06:12:37;1.55;;;1.10;;
15637;SDS011;26604;53.596;10.042;2022-10-01T06:15:05;1.70;;;1.30;;
15637;SDS011;26604;53.596;10.042;2022-10-01T06:17:32;1.58;;;1.00;;
15637;SDS011;26604;53.596;10.042;2022-10-01T06:19:59;1.40;;;1.02;;
15637;SDS011;26604;53.596;10.042;2022-10-01T06:22:26;1.13;;;0.90;;
15637;SDS011;26604;53.596;10.042;2022-10-01T06:24:53;1.33;;;0.95;;
15637;SDS011;26604;53.596;10.042;2022-10-01T06:27:21;1.60;;;1.00;;
15637;SDS011;26604;53.596;10.042;2022-10-01T06:29:48;1.35;;;0.93;;
15637;SDS011;26604;53.596;10.042;2022-10-01T06:32:15;1.25;;;0.90;;
15637;SDS011;26604;53.596;10.042;2022-10-01T06:34:43;1.13;;;0.90;;
15637;SDS011;26604;53.596;10.042;2022-10-01T06:37:11;1.27;;;1.00;;
15637;SDS011;26604;53.596;10.042;2022-10-01T06:39:37;1.17;;;1.08;;
15637;SDS011;26604;53.596;10.042;2022-10-01T06:42:04;1.00;;;0.90;;
15637;SDS011;26604;53.596;10.042;2022-10-01T06:44:33;1.17;;;1.08;;
15637;SDS011;26604;53.596;10.042;2022-10-01T06:46:59;1.05;;;0.88;;
15637;SDS011;26604;53.596;10.042;2022-10-01T06:49:26;1.00;;;0.90;;
15637;SDS011;26604;53.596;10.042;2022-10-01T06:51:53;1.35;;;1.08;;
15637;SDS011;26604;53.596;10.042;2022-10-01T06:54:34;1.23;;;1.00;;
15637;SDS011;26604;53.596;10.042;2022-10-01T06:57:01;1.10;;;0.80;;
15637;SDS011;26604;53.596;10.042;2022-10-01T06:59:27;1.67;;;1.00;;
15637;SDS011;26604;53.596;10.042;2022-10-01T07:01:56;1.65;;;1.10;;
15637;SDS011;26604;53.596;10.042;2022-10-01T07:04:22;1.08;;;0.80;;
15637;SDS011;26604;53.596;10.042;2022-10-01T07:06:49;2.38;;;1.40;;
15637;SDS011;26604;53.596;10.042;2022-10-01T07:09:16;1.95;;;1.10;;
15637;SDS011;26604;53.596;10.042;2022-10-01T07:11:43;1.75;;;1.23;;
15637;SDS011;26604;53.596;10.042;2022-10-01T07:14:10;1.30;;;0.95;;
15637;SDS011;26604;53.596;10.042;2022-10-01T07:16:37;1.38;;;0.90;;
15637;SDS011;26604;53.596;10.042;2022-10-01T07:19:05;1.00;;;0.90;;
15637;SDS011;26604;53.596;10.042;2022-10-01T07:21:32;1.20;;;0.90;;
15637;SDS011;26604;53.596;10.042;2022-10-01T07:23:59;1.05;;;0.90;;
15637;SDS011;26604;53.596;10.042;2022-10-01T07:26:26;1.10;;;0.90;;
15637;SDS011;26604;53.596;10.042;2022-10-01T07:28:53;0.85;;;0.80;;
15637;SDS011;26604;53.596;10.042;2022-10-01T07:31:20;1.55;;;1.00;;
15637;SDS011;26604;53.596;10.042;2022-10-01T07:33:48;1.48;;;1.13;;
15637;SDS011;26604;53.596;10.042;2022-10-01T07:36:16;0.65;;;0.60;;
15637;SDS011;26604;53.596;10.042;2022-10-01T07:38:43;1.50;;;0.98;;
15637;SDS011;26604;53.596;10.042;2022-10-01T07:41:14;1.20;;;0.98;;
15637;SDS011;26604;53.596;10.042;2022-10-01T07:43:42;1.38;;;1.00;;
15637;SDS011;26604;53.596;10.042;2022-10-01T07:46:11;1.88;;;1.10;;
15637;SDS011;26604;53.596;10.042;2022-10-01T07:48:38;1.60;;;1.00;;
15637;SDS011;26604;53.596;10.042;2022-10-01T07:51:05;1.33;;;1.08;;
15637;SDS011;26604;53.596;10.042;2022-10-01T07:53:34;1.13;;;0.88;;
15637;SDS011;26604;53.596;10.042;2022-10-01T07:56:00;1.10;;;0.77;;
15637;SDS011;26604;53.596;10.042;2022-10-01T07:58:28;1.05;;;0.80;;
15637;SDS011;26604;53.596;10.042;2022-10-01T08:00:55;1.27;;;0.90;;
15637;SDS011;26604;53.596;10.042;2022-10-01T08:03:23;1.10;;;0.90;;
15637;SDS011;26604;53.596;10.042;2022-10-01T08:05:50;2.03;;;1.08;;
15637;SDS011;26604;53.596;10.042;2022-10-01T08:08:18;1.40;;;1.00;;
15637;SDS011;26604;53.596;10.042;2022-10-01T08:10:47;0.98;;;0.85;;
15637;SDS011;26604;53.596;10.042;2022-10-01T08:13:14;1.80;;;1.15;;
15637;SDS011;26604;53.596;10.042;2022-10-01T08:15:43;0.90;;;0.80;;
15637;SDS011;26604;53.596;10.042;2022-10-01T08:18:11;0.95;;;0.80;;
15637;SDS011;26604;53.596;10.042;2022-10-01T08:20:38;1.27;;;0.90;;
15637;SDS011;26604;53.596;10.042;2022-10-01T08:23:06;1.63;;;1.00;;
15637;SDS011;26604;53.596;10.042;2022-10-01T08:25:35;0.70;;;0.70;;
15637;SDS011;26604;53.596;10.042;2022-10-01T08:28:03;1.00;;;0.80;;
15637;SDS011;26604;53.596;10.042;2022-10-01T08:30:31;1.33;;;0.98;;
15637;SDS011;26604;53.596;10.042;2022-10-01T08:32:59;1.15;;;0.80;;
15637;SDS011;26604;53.596;10.042;2022-10-01T08:35:26;1.73;;;0.85;;
15637;SDS011;26604;53.596;10.042;2022-10-01T08:37:54;1.42;;;0.90;;
15637;SDS011;26604;53.596;10.042;2022-10-01T08:40:21;1.25;;;0.90;;
15637;SDS011;26604;53.596;10.042;2022-10-01T08:42:50;2.08;;;1.08;;
15637;SDS011;26604;53.596;10.042;2022-10-01T08:45:22;1.10;;;1.00;;
15637;SDS011;26604;53.596;10.042;2022-10-01T08:47:54;0.70;;;0.70;;
15637;SDS011;26604;53.596;10.042;2022-10-01T08:50:36;1.67;;;1.02;;
15637;SDS011;26604;53.596;10.042;2022-10-01T08:53:10;0.90;;;0.70;;
15637;SDS011;26604;53.596;10.042;2022-10-01T08:55:42;1.00;;;0.82;;
15637;SDS011;26604;53.596;10.042;2022-10-01T08:58:13;0.95;;;0.77;;
15637;SDS011;26604;53.596;10.042;2022-10-01T09:00:48;1.40;;;0.98;;
15637;SDS011;26604;53.596;10.042;2022-10-01T09:03:16;0.93;;;0.70;;
15637;SDS011;26604;53.596;10.042;2022-10-01T09:05:46;1.08;;;0.80;;
15637;SDS011;26604;53.596;10.042;2022-10-01T09:08:23;1.10;;;0.80;;
15637;SDS011;26604;53.596;10.042;2022-10-01T09:11:11;1.52;;;0.90;;
15637;SDS011;26604;53.596;10.042;2022-10-01T09:13:52;1.08;;;0.80;;
15637;SDS011;26604;53.596;10.042;2022-10-01T09:16:30;1.13;;;0.80;;
15637;SDS011;26604;53.596;10.042;2022-10-01T09:19:06;1.20;;;0.90;;
15637;SDS011;26604;53.596;10.042;2022-10-01T09:21:46;3.13;;;0.95;;
15637;SDS011;26604;53.596;10.042;2022-10-01T09:24:21;1.00;;;0.80;;
15637;SDS011;26604;53.596;10.042;2022-10-01T09:27:04;1.25;;;0.80;;
15637;SDS011;26604;53.596;10.042;2022-10-01T09:29:38;2.25;;;1.00;;
15637;SDS011;26604;53.596;10.042;2022-10-01T09:32:11;2.08;;;1.10;;
15637;SDS011;26604;53.596;10.042;2022-10-01T09:34:42;0.90;;;0.80;;
15637;SDS011;26604;53.596;10.042;2022-10-01T09:37:11;1.20;;;0.90;;
15637;SDS011;26604;53.596;10.042;2022-10-01T09:39:48;1.52;;;1.10;;
15637;SDS011;26604;53.596;10.042;2022-10-01T09:42:26;1.08;;;0.98;;
15637;SDS011;26604;53.596;10.042;2022-10-01T09:44:54;1.17;;;1.00;;
15637;SDS011;26604;53.596;10.042;2022-10-01T09:47:23;2.20;;;0.80;;
15637;SDS011;26604;53.596;10.042;2022-10-01T09:49:50;1.25;;;0.70;;
15637;SDS011;26604;53.596;10.042;2022-10-01T09:52:19;0.98;;;0.85;;
15637;SDS011;26604;53.596;10.042;2022-10-01T09:54:52;1.05;;;0.88;;
15637;SDS011;26604;53.596;10.042;2022-10-01T09:57:23;1.63;;;0.80;;
15637;SDS011;26604;53.596;10.042;2022-10-01T09:59:54;0.65;;;0.55;;
15637;SDS011;26604;53.596;10.042;2022-10-01T10:02:30;0.98;;;0.80;;
15637;SDS011;26604;53.596;10.042;2022-10-01T10:04:59;0.93;;;0.80;;
15637;SDS011;26604;53.596;10.042;2022-10-01T10:07:26;1.20;;;0.80;;
15637;SDS011;26604;53.596;10.042;2022-10-01T10:09:56;1.13;;;0.80;;
15637;SDS011;26604;53.596;10.042;2022-10-01T10:12:32;1.25;;;0.90;;
15637;SDS011;26604;53.596;10.042;2022-10-01T10:15:04;0.63;;;0.63;;
15637;SDS011;26604;53.596;10.042;2022-10-01T10:17:34;1.67;;;0.85;;
15637;SDS011;26604;53.596;10.042;2022-10-01T10:20:06;1.67;;;0.88;;
15637;SDS011;26604;53.596;10.042;2022-10-01T10:22:36;1.08;;;0.73;;
15637;SDS011;26604;53.596;10.042;2022-10-01T10:25:10;1.63;;;0.90;;
15637;SDS011;26604;53.596;10.042;2022-10-01T10:27:48;1.35;;;0.80;;
15637;SDS011;26604;53.596;10.042;2022-10-01T10:30:19;1.30;;;0.80;;
15637;SDS011;26604;53.596;10.042;2022-10-01T10:32:49;1.35;;;1.02;;
15637;SDS011;26604;53.596;10.042;2022-10-01T10:35:18;2.42;;;0.77;;
15637;SDS011;26604;53.596;10.042;2022-10-01T10:37:49;1.08;;;0.75;;
15637;SDS011;26604;53.596;10.042;2022-10-01T10:40:20;0.90;;;0.80;;
15637;SDS011;26604;53.596;10.042;2022-10-01T10:42:50;1.25;;;0.80;;
15637;SDS011;26604;53.596;10.042;2022-10-01T10:45:20;1.27;;;0.88;;
15637;SDS011;26604;53.596;10.042;2022-10-01T10:47:55;1.42;;;0.90;;
15637;SDS011;26604;53.596;10.042;2022-10-01T10:50:27;1.13;;;0.90;;
15637;SDS011;26604;53.596;10.042;2022-10-01T10:52:56;1.13;;;0.82;;
15637;SDS011;26604;53.596;10.042;2022-10-01T10:55:24;1.05;;;0.82;;
15637;SDS011;26604;53.596;10.042;2022-10-01T10:57:54;0.85;;;0.80;;
15637;SDS011;26604;53.596;10.042;2022-10-01T11:00:34;1.15;;;0.90;;
15637;SDS011;26604;53.596;10.042;2022-10-01T11:03:12;1.27;;;1.00;;
15637;SDS011;26604;53.596;10.042;2022-10-01T11:05:41;0.80;;;0.73;;
15637;SDS011;26604;53.596;10.042;2022-10-01T11:08:10;1.05;;;0.80;;
15637;SDS011;26604;53.596;10.042;2022-10-01T11:10:39;1.10;;;0.95;;
15637;SDS011;26604;53.596;10.042;2022-10-01T11:13:15;0.88;;;0.73;;
15637;SDS011;26604;53.596;10.042;2022-10-01T11:16:00;0.85;;;0.65;;
15637;SDS011;26604;53.596;10.042;2022-10-01T11:18:58;0.77;;;0.70;;
15637;SDS011;26604;53.596;10.042;2022-10-01T11:21:50;1.73;;;0.90;;
15637;SDS011;26604;53.596;10.042;2022-10-01T11:24:38;0.93;;;0.90;;
15637;SDS011;26604;53.596;10.042;2022-10-01T11:27:19;0.90;;;0.77;;
15637;SDS011;26604;53.596;10.042;2022-10-01T11:29:54;1.00;;;0.80;;
15637;SDS011;26604;53.596;10.042;2022-10-01T11:32:29;1.15;;;0.80;;
15637;SDS011;26604;53.596;10.042;2022-10-01T11:35:13;1.58;;;0.82;;
15637;SDS011;26604;53.596;10.042;2022-10-01T11:37:52;1.25;;;0.80;;
15637;SDS011;26604;53.596;10.042;2022-10-01T11:40:31;0.98;;;0.70;;
15637;SDS011;26604;53.596;10.042;2022-10-01T11:43:03;0.82;;;0.63;;
15637;SDS011;26604;53.596;10.042;2022-10-01T11:45:39;1.00;;;0.70;;
15637;SDS011;26604;53.596;10.042;2022-10-01T11:48:11;1.25;;;1.00;;
15637;SDS011;26604;53.596;10.042;2022-10-01T11:50:44;1.10;;;0.68;;
15637;SDS011;26604;53.596;10.042;2022-10-01T11:53:14;1.27;;;0.73;;
15637;SDS011;26604;53.596;10.042;2022-10-01T11:55:47;1.83;;;1.02;;
15637;SDS011;26604;53.596;10.042;2022-10-01T11:58:38;0.98;;;0.70;;
15637;SDS011;26604;53.596;10.042;2022-10-01T12:01:20;1.42;;;0.90;;
15637;SDS011;26604;53.596;10.042;2022-10-01T12:04:02;1.10;;;0.88;;
15637;SDS011;26604;53.596;10.042;2022-10-01T12:06:39;0.90;;;0.77;;
15637;SDS011;26604;53.596;10.042;2022-10-01T12:09:12;0.82;;;0.70;;
15637;SDS011;26604;53.596;10.042;2022-10-01T12:11:44;1.33;;;0.90;;
15637;SDS011;26604;53.596;10.042;2022-10-01T12:14:17;1.20;;;0.90;;
15637;SDS011;26604;53.596;10.042;2022-10-01T12:16:49;1.25;;;1.00;;
15637;SDS011;26604;53.596;10.042;2022-10-01T12:19:20;0.90;;;0.70;;
15637;SDS011;26604;53.596;10.042;2022-10-01T12:21:52;1.27;;;0.90;;
15637;SDS011;26604;53.596;10.042;2022-10-01T12:24:26;1.40;;;0.88;;
15637;SDS011;26604;53.596;10.042;2022-10-01T12:27:07;1.38;;;0.80;;
15637;SDS011;26604;53.596;10.042;2022-10-01T12:29:51;1.30;;;0.80;;
15637;SDS011;26604;53.596;10.042;2022-10-01T12:32:24;1.00;;;0.80;;
15637;SDS011;26604;53.596;10.042;2022-10-01T12:35:05;0.80;;;0.75;;
15637;SDS011;26604;53.596;10.042;2022-10-01T12:37:47;1.00;;;0.77;;
15637;SDS011;26604;53.596;10.042;2022-10-01T12:40:25;1.08;;;0.75;;
15637;SDS011;26604;53.596;10.042;2022-10-01T12:43:04;1.05;;;0.80;;
15637;SDS011;26604;53.596;10.042;2022-10-01T12:45:46;0.77;;;0.70;;
15637;SDS011;26604;53.596;10.042;2022-10-01T12:48:20;1.20;;;0.77;;
15637;SDS011;26604;53.596;10.042;2022-10-01T12:51:01;1.10;;;0.60;;
15637;SDS011;26604;53.596;10.042;2022-10-01T12:53:42;0.60;;;0.60;;
15637;SDS011;26604;53.596;10.042;2022-10-01T12:56:16;1.00;;;0.90;;
15637;SDS011;26604;53.596;10.042;2022-10-01T12:59:02;0.75;;;0.63;;
15637;SDS011;26604;53.596;10.042;2022-10-01T13:01:47;1.23;;;0.80;;
15637;SDS011;26604;53.596;10.042;2022-10-01T13:04:24;0.95;;;0.70;;
15637;SDS011;26604;53.596;10.042;2022-10-01T13:07:03;1.10;;;0.73;;
15637;SDS011;26604;53.596;10.042;2022-10-01T13:09:48;0.85;;;0.73;;
15637;SDS011;26604;53.596;10.042;2022-10-01T13:12:26;0.80;;;0.70;;
15637;SDS011;26604;53.596;10.042;2022-10-01T13:15:06;0.88;;;0.73;;
15637;SDS011;26604;53.596;10.042;2022-10-01T13:17:39;1.40;;;0.90;;
15637;SDS011;26604;53.596;10.042;2022-10-01T13:20:12;0.93;;;0.73;;
15637;SDS011;26604;53.596;10.042;2022-10-01T13:22:46;0.82;;;0.57;;
15637;SDS011;26604;53.596;10.042;2022-10-01T13:25:20;0.60;;;0.60;;
15637;SDS011;26604;53.596;10.042;2022-10-01T13:27:57;0.77;;;0.65;;
15637;SDS011;26604;53.596;10.042;2022-10-01T13:30:30;0.80;;;0.60;;
15637;SDS011;26604;53.596;10.042;2022-10-01T13:33:19;1.45;;;0.80;;
15637;SDS011;26604;53.596;10.042;2022-10-01T13:35:52;1.38;;;0.80;;
15637;SDS011;26604;53.596;10.042;2022-10-01T13:38:28;1.25;;;0.70;;
15637;SDS011;26604;53.596;10.042;2022-10-01T13:41:06;1.75;;;0.90;;
15637;SDS011;26604;53.596;10.042;2022-10-01T13:43:46;0.85;;;0.60;;
15637;SDS011;26604;53.596;10.042;2022-10-01T13:46:20;0.90;;;0.63;;
15637;SDS011;26604;53.596;10.042;2022-10-01T13:48:48;0.93;;;0.82;;
15637;SDS011;26604;53.596;10.042;2022-10-01T13:51:15;1.00;;;0.70;;
15637;SDS011;26604;53.596;10.042;2022-10-01T13:53:45;1.30;;;0.70;;
15637;SDS011;26604;53.596;10.042;2022-10-01T13:56:26;1.95;;;0.80;;
15637;SDS011;26604;53.596;10.042;2022-10-01T13:58:54;0.80;;;0.70;;
15637;SDS011;26604;53.596;10.042;2022-10-01T14:01:28;1.25;;;0.85;;
15637;SDS011;26604;53.596;10.042;2022-10-01T14:04:03;0.88;;;0.75;;
15637;SDS011;26604;53.596;10.042;2022-10-01T14:06:40;1.00;;;0.90;;
15637;SDS011;26604;53.596;10.042;2022-10-01T14:09:12;1.00;;;0.80;;
15637;SDS011;26604;53.596;10.042;2022-10-01T14:11:43;0.90;;;0.70;;
15637;SDS011;26604;53.596;10.042;2022-10-01T14:14:30;1.00;;;0.70;;
15637;SDS011;26604;53.596;10.042;2022-10-01T14:17:18;1.73;;;0.90;;
15637;SDS011;26604;53.596;10.042;2022-10-01T14:19:47;1.08;;;0.85;;
15637;SDS011;26604;53.596;10.042;2022-10-01T14:25:22;0.70;;;0.70;;
15637;SDS011;26604;53.596;10.042;2022-10-01T14:28:03;1.08;;;0.80;;
15637;SDS011;26604;53.596;10.042;2022-10-01T14:30:40;0.60;;;0.60;;
15637;SDS011;26604;53.596;10.042;2022-10-01T14:33:17;0.60;;;0.60;;
15637;SDS011;26604;53.596;10.042;2022-10-01T14:35:59;1.38;;;0.63;;
15637;SDS011;26604;53.596;10.042;2022-10-01T14:38:31;0.90;;;0.80;;
15637;SDS011;26604;53.596;10.042;2022-10-01T14:40:59;0.80;;;0.80;;
15637;SDS011;26604;53.596;10.042;2022-10-01T14:43:28;0.90;;;0.80;;
15637;SDS011;26604;53.596;10.042;2022-10-01T14:45:57;1.13;;;0.70;;
15637;SDS011;26604;53.596;10.042;2022-10-01T14:48:28;1.35;;;0.70;;
15637;SDS011;26604;53.596;10.042;2022-10-01T14:50:56;1.10;;;0.75;;
15637;SDS011;26604;53.596;10.042;2022-10-01T14:53:26;1.00;;;0.63;;
15637;SDS011;26604;53.596;10.042;2022-10-01T14:55:55;0.75;;;0.68;;
15637;SDS011;26604;53.596;10.042;2022-10-01T14:58:26;0.80;;;0.65;;
15637;SDS011;26604;53.596;10.042;2022-10-01T15:00:56;0.90;;;0.80;;